Terminal Aerodrome Forecast
Issued by NWS Albany, NY

Home | Current Version | Previous Version | Text Only | Print | Product List | Glossary On
Versions: 1 2 3 4 5 6 7 8 9 10 11 12 13 14 15 16 17 18 19 20
000
FTUS41 KALY 210400 AAA
TAFALB
TAF AMD
KALB 210454Z 2105/2124 VRB03KT P6SM VCSH SCT025 OVC040
      TEMPO 2105/2108 3SM -SHRA BR OVC025
     FM210900 VRB03KT 3SM -SHRA BR OVC025
     FM211200 15005KT 3SM -RA BR OVC020
     FM211600 14005KT 5SM -SHRA SCT020 OVC040=

USA.gov is the U.S. government's official web portal to all federal, state and local government web resources and services.